sensor_id;sensor_type;location;lat;lon;timestamp;pressure;altitude;pressure_sealevel;temperature;humidity
61359;BME280;47228;46.762;23.598;2023-08-06T00:00:28;95988.08;;;22.58;58.67
61359;BME280;47228;46.762;23.598;2023-08-06T00:03:16;95981.27;;;22.52;58.89
61359;BME280;47228;46.762;23.598;2023-08-06T00:05:44;95977.33;;;22.45;59.01
61359;BME280;47228;46.762;23.598;2023-08-06T00:08:12;95977.13;;;22.41;59.13
61359;BME280;47228;46.762;23.598;2023-08-06T00:10:40;95980.30;;;22.38;59.50
61359;BME280;47228;46.762;23.598;2023-08-06T00:13:09;95977.13;;;22.35;59.94
61359;BME280;47228;46.762;23.598;2023-08-06T00:15:37;95974.30;;;22.32;60.12
61359;BME280;47228;46.762;23.598;2023-08-06T00:18:05;95968.76;;;22.31;60.30
61359;BME280;47228;46.762;23.598;2023-08-06T00:20:33;95966.59;;;22.29;60.59
61359;BME280;47228;46.762;23.598;2023-08-06T00:23:01;95963.56;;;22.27;60.68
61359;BME280;47228;46.762;23.598;2023-08-06T00:25:30;95959.77;;;22.25;60.28
61359;BME280;47228;46.762;23.598;2023-08-06T00:27:58;95962.06;;;22.25;60.42
61359;BME280;47228;46.762;23.598;2023-08-06T00:30:26;95968.70;;;22.25;60.33
61359;BME280;47228;46.762;23.598;2023-08-06T00:32:55;95973.33;;;22.26;60.40
61359;BME280;47228;46.762;23.598;2023-08-06T00:35:23;95969.95;;;22.27;60.43
61359;BME280;47228;46.762;23.598;2023-08-06T00:37:51;95968.09;;;22.28;60.45
61359;BME280;47228;46.762;23.598;2023-08-06T00:40:20;95966.60;;;22.29;60.30
61359;BME280;47228;46.762;23.598;2023-08-06T00:42:49;95965.83;;;22.31;60.85
61359;BME280;47228;46.762;23.598;2023-08-06T00:45:17;95963.21;;;22.31;60.74
61359;BME280;47228;46.762;23.598;2023-08-06T00:47:45;95956.00;;;22.30;60.75
61359;BME280;47228;46.762;23.598;2023-08-06T00:50:14;95953.71;;;22.29;60.84
61359;BME280;47228;46.762;23.598;2023-08-06T00:52:44;95949.98;;;22.27;60.60
61359;BME280;47228;46.762;23.598;2023-08-06T00:55:12;95954.08;;;22.26;60.67
61359;BME280;47228;46.762;23.598;2023-08-06T00:57:40;95955.06;;;22.24;60.77
61359;BME280;47228;46.762;23.598;2023-08-06T01:00:08;95953.55;;;22.21;60.98
61359;BME280;47228;46.762;23.598;2023-08-06T01:02:37;95950.05;;;22.19;61.10
61359;BME280;47228;46.762;23.598;2023-08-06T01:05:14;95948.40;;;22.18;60.97
61359;BME280;47228;46.762;23.598;2023-08-06T01:16:00;95938.45;;;22.20;61.22
61359;BME280;47228;46.762;23.598;2023-08-06T01:18:28;95927.13;;;22.21;61.31
61359;BME280;47228;46.762;23.598;2023-08-06T01:20:59;95925.95;;;22.21;61.31
61359;BME280;47228;46.762;23.598;2023-08-06T01:23:27;95929.55;;;22.20;61.40
61359;BME280;47228;46.762;23.598;2023-08-06T01:26:10;95926.23;;;22.18;61.46
61359;BME280;47228;46.762;23.598;2023-08-06T01:31:22;95915.62;;;22.13;61.41
61359;BME280;47228;46.762;23.598;2023-08-06T01:33:53;95912.15;;;22.09;61.75
61359;BME280;47228;46.762;23.598;2023-08-06T01:36:21;95905.30;;;22.05;61.78
61359;BME280;47228;46.762;23.598;2023-08-06T01:38:52;95905.51;;;22.00;61.68
61359;BME280;47228;46.762;23.598;2023-08-06T01:41:20;95901.66;;;21.93;61.85
61359;BME280;47228;46.762;23.598;2023-08-06T01:43:49;95902.25;;;21.88;61.75
61359;BME280;47228;46.762;23.598;2023-08-06T01:46:17;95897.27;;;21.85;61.79
61359;BME280;47228;46.762;23.598;2023-08-06T01:48:45;95893.88;;;21.86;61.79
61359;BME280;47228;46.762;23.598;2023-08-06T01:51:13;95891.23;;;21.88;61.93
61359;BME280;47228;46.762;23.598;2023-08-06T01:53:41;95893.42;;;21.90;62.25
61359;BME280;47228;46.762;23.598;2023-08-06T01:56:09;95901.05;;;21.92;62.36
61359;BME280;47228;46.762;23.598;2023-08-06T01:58:37;95898.39;;;21.94;62.32
61359;BME280;47228;46.762;23.598;2023-08-06T02:01:05;95897.89;;;21.95;62.34
61359;BME280;47228;46.762;23.598;2023-08-06T02:03:34;95905.07;;;21.92;62.16
61359;BME280;47228;46.762;23.598;2023-08-06T02:06:02;95906.66;;;21.86;62.15
61359;BME280;47228;46.762;23.598;2023-08-06T02:08:30;95905.95;;;21.79;62.00
61359;BME280;47228;46.762;23.598;2023-08-06T02:10:58;95908.30;;;21.71;62.16
61359;BME280;47228;46.762;23.598;2023-08-06T02:13:26;95906.52;;;21.64;62.46
61359;BME280;47228;46.762;23.598;2023-08-06T02:15:54;95899.27;;;21.58;62.85
61359;BME280;47228;46.762;23.598;2023-08-06T02:18:22;95896.38;;;21.49;62.83
61359;BME280;47228;46.762;23.598;2023-08-06T02:20:56;95899.39;;;21.41;63.17
61359;BME280;47228;46.762;23.598;2023-08-06T02:23:25;95899.26;;;21.34;63.58
61359;BME280;47228;46.762;23.598;2023-08-06T02:26:00;95902.25;;;21.26;63.77
61359;BME280;47228;46.762;23.598;2023-08-06T02:28:29;95899.28;;;21.17;64.00
61359;BME280;47228;46.762;23.598;2023-08-06T02:30:58;95895.70;;;21.09;64.21
61359;BME280;47228;46.762;23.598;2023-08-06T02:33:26;95892.56;;;21.02;64.59
61359;BME280;47228;46.762;23.598;2023-08-06T02:36:03;95889.11;;;20.96;64.62
61359;BME280;47228;46.762;23.598;2023-08-06T02:38:32;95880.33;;;20.90;64.93
61359;BME280;47228;46.762;23.598;2023-08-06T02:41:04;95882.07;;;20.84;65.15
61359;BME280;47228;46.762;23.598;2023-08-06T02:43:32;95880.50;;;20.77;65.57
61359;BME280;47228;46.762;23.598;2023-08-06T02:46:00;95885.73;;;20.70;65.81
61359;BME280;47228;46.762;23.598;2023-08-06T02:48:29;95889.58;;;20.62;66.03
61359;BME280;47228;46.762;23.598;2023-08-06T02:50:58;95886.81;;;20.55;66.46
61359;BME280;47228;46.762;23.598;2023-08-06T02:53:29;95885.84;;;20.51;66.60
61359;BME280;47228;46.762;23.598;2023-08-06T02:55:57;95886.91;;;20.51;66.71
61359;BME280;47228;46.762;23.598;2023-08-06T02:58:26;95887.02;;;20.51;66.79
61359;BME280;47228;46.762;23.598;2023-08-06T03:01:02;95883.67;;;20.51;66.83
61359;BME280;47228;46.762;23.598;2023-08-06T03:03:31;95884.44;;;20.51;67.08
61359;BME280;47228;46.762;23.598;2023-08-06T03:06:00;95876.70;;;20.50;67.12
61359;BME280;47228;46.762;23.598;2023-08-06T03:08:28;95875.45;;;20.50;67.22
61359;BME280;47228;46.762;23.598;2023-08-06T03:10:56;95878.41;;;20.50;67.49
61359;BME280;47228;46.762;23.598;2023-08-06T03:13:24;95884.19;;;20.50;67.58
61359;BME280;47228;46.762;23.598;2023-08-06T03:15:57;95884.43;;;20.49;67.96
61359;BME280;47228;46.762;23.598;2023-08-06T03:18:25;95878.14;;;20.48;67.92
61359;BME280;47228;46.762;23.598;2023-08-06T03:20:54;95874.64;;;20.48;68.22
61359;BME280;47228;46.762;23.598;2023-08-06T03:23:23;95874.48;;;20.47;68.41
61359;BME280;47228;46.762;23.598;2023-08-06T03:25:51;95878.54;;;20.50;68.60
61359;BME280;47228;46.762;23.598;2023-08-06T03:28:19;95875.58;;;20.52;68.90
61359;BME280;47228;46.762;23.598;2023-08-06T03:30:47;95876.91;;;20.52;68.99
61359;BME280;47228;46.762;23.598;2023-08-06T03:33:15;95874.47;;;20.53;69.04
61359;BME280;47228;46.762;23.598;2023-08-06T03:35:43;95874.14;;;20.53;69.61
61359;BME280;47228;46.762;23.598;2023-08-06T03:38:11;95875.26;;;20.53;69.72
61359;BME280;47228;46.762;23.598;2023-08-06T03:40:39;95876.80;;;20.55;69.95
61359;BME280;47228;46.762;23.598;2023-08-06T03:43:07;95870.45;;;20.56;70.17
61359;BME280;47228;46.762;23.598;2023-08-06T03:45:35;95868.88;;;20.57;70.47
61359;BME280;47228;46.762;23.598;2023-08-06T03:48:03;95867.88;;;20.56;71.04
61359;BME280;47228;46.762;23.598;2023-08-06T03:50:31;95861.89;;;20.54;70.93
61359;BME280;47228;46.762;23.598;2023-08-06T03:52:59;95865.05;;;20.55;71.22
61359;BME280;47228;46.762;23.598;2023-08-06T03:55:28;95872.39;;;20.55;71.50
61359;BME280;47228;46.762;23.598;2023-08-06T03:57:56;95872.84;;;20.56;71.43
61359;BME280;47228;46.762;23.598;2023-08-06T04:00:24;95869.94;;;20.58;71.62
61359;BME280;47228;46.762;23.598;2023-08-06T04:02:51;95872.63;;;20.61;71.96
61359;BME280;47228;46.762;23.598;2023-08-06T04:05:20;95872.55;;;20.64;72.27
61359;BME280;47228;46.762;23.598;2023-08-06T04:07:48;95869.00;;;20.68;72.26
61359;BME280;47228;46.762;23.598;2023-08-06T04:10:16;95867.23;;;20.73;72.47
61359;BME280;47228;46.762;23.598;2023-08-06T04:12:44;95869.53;;;20.75;72.65
61359;BME280;47228;46.762;23.598;2023-08-06T04:15:12;95873.32;;;20.77;72.78
61359;BME280;47228;46.762;23.598;2023-08-06T04:17:40;95868.33;;;20.79;72.90
61359;BME280;47228;46.762;23.598;2023-08-06T04:20:09;95862.05;;;20.82;73.14
61359;BME280;47228;46.762;23.598;2023-08-06T04:22:37;95869.94;;;20.84;73.14
61359;BME280;47228;46.762;23.598;2023-08-06T04:25:06;95871.94;;;20.86;73.09
61359;BME280;47228;46.762;23.598;2023-08-06T04:27:34;95873.54;;;20.86;73.40
61359;BME280;47228;46.762;23.598;2023-08-06T04:30:02;95877.09;;;20.85;73.55
61359;BME280;47228;46.762;23.598;2023-08-06T04:32:30;95881.36;;;20.88;73.54
61359;BME280;47228;46.762;23.598;2023-08-06T04:34:58;95894.83;;;20.92;73.56
61359;BME280;47228;46.762;23.598;2023-08-06T04:37:26;95900.09;;;20.95;73.44
61359;BME280;47228;46.762;23.598;2023-08-06T04:39:54;95899.15;;;20.98;73.61
61359;BME280;47228;46.762;23.598;2023-08-06T04:42:22;95900.27;;;20.99;73.46
61359;BME280;47228;46.762;23.598;2023-08-06T04:44:50;95899.36;;;21.00;73.62
61359;BME280;47228;46.762;23.598;2023-08-06T04:47:18;95895.60;;;21.02;73.64
61359;BME280;47228;46.762;23.598;2023-08-06T04:49:46;95899.14;;;21.05;73.56
61359;BME280;47228;46.762;23.598;2023-08-06T04:52:14;95908.17;;;21.07;73.46
61359;BME280;47228;46.762;23.598;2023-08-06T04:54:43;95914.55;;;21.07;73.33
61359;BME280;47228;46.762;23.598;2023-08-06T04:57:11;95910.73;;;21.06;73.55
61359;BME280;47228;46.762;23.598;2023-08-06T04:59:39;95901.84;;;21.05;73.51
61359;BME280;47228;46.762;23.598;2023-08-06T05:02:07;95907.27;;;21.06;73.52
61359;BME280;47228;46.762;23.598;2023-08-06T05:04:35;95910.97;;;21.04;73.39
61359;BME280;47228;46.762;23.598;2023-08-06T05:07:05;95915.91;;;21.01;73.43
61359;BME280;47228;46.762;23.598;2023-08-06T05:09:33;95920.46;;;21.00;73.51
61359;BME280;47228;46.762;23.598;2023-08-06T05:12:04;95928.77;;;20.98;73.76
61359;BME280;47228;46.762;23.598;2023-08-06T05:14:32;95939.64;;;20.97;74.01
61359;BME280;47228;46.762;23.598;2023-08-06T05:17:00;95947.34;;;20.98;74.52
61359;BME280;47228;46.762;23.598;2023-08-06T05:19:31;95946.31;;;20.96;74.91
61359;BME280;47228;46.762;23.598;2023-08-06T05:21:59;95936.88;;;20.88;75.22
61359;BME280;47228;46.762;23.598;2023-08-06T05:24:27;95928.22;;;20.81;75.72
61359;BME280;47228;46.762;23.598;2023-08-06T05:26:55;95940.15;;;20.73;76.52
61359;BME280;47228;46.762;23.598;2023-08-06T05:29:23;95948.05;;;20.70;77.50
61359;BME280;47228;46.762;23.598;2023-08-06T05:31:51;95952.45;;;20.66;77.94
61359;BME280;47228;46.762;23.598;2023-08-06T05:34:19;95956.06;;;20.63;78.22
61359;BME280;47228;46.762;23.598;2023-08-06T05:36:47;95959.08;;;20.61;78.57
61359;BME280;47228;46.762;23.598;2023-08-06T05:39:15;95952.27;;;20.59;78.62
61359;BME280;47228;46.762;23.598;2023-08-06T05:41:43;95943.71;;;20.56;79.07
61359;BME280;47228;46.762;23.598;2023-08-06T05:44:11;95947.45;;;20.52;79.27
61359;BME280;47228;46.762;23.598;2023-08-06T05:46:39;95954.75;;;20.51;79.69
61359;BME280;47228;46.762;23.598;2023-08-06T05:49:07;95930.06;;;20.51;80.85
61359;BME280;47228;46.762;23.598;2023-08-06T05:51:35;95842.75;;;20.46;81.45
61359;BME280;47228;46.762;23.598;2023-08-06T05:54:03;95790.80;;;20.38;81.65
61359;BME280;47228;46.762;23.598;2023-08-06T05:56:31;95779.31;;;20.30;82.29
61359;BME280;47228;46.762;23.598;2023-08-06T05:58:59;95767.55;;;20.29;83.41
61359;BME280;47228;46.762;23.598;2023-08-06T06:01:27;95757.20;;;20.28;83.61
61359;BME280;47228;46.762;23.598;2023-08-06T06:03:55;95750.19;;;20.28;84.28
61359;BME280;47228;46.762;23.598;2023-08-06T06:06:23;95768.33;;;20.27;84.22
61359;BME280;47228;46.762;23.598;2023-08-06T06:08:51;95790.36;;;20.26;84.99
61359;BME280;47228;46.762;23.598;2023-08-06T06:11:18;95790.33;;;20.27;85.48
61359;BME280;47228;46.762;23.598;2023-08-06T06:13:51;95792.54;;;20.34;86.25
61359;BME280;47228;46.762;23.598;2023-08-06T06:16:19;95802.64;;;20.44;87.25
61359;BME280;47228;46.762;23.598;2023-08-06T06:18:47;95807.56;;;20.54;87.62
61359;BME280;47228;46.762;23.598;2023-08-06T06:21:15;95804.78;;;20.65;87.55
61359;BME280;47228;46.762;23.598;2023-08-06T06:23:43;95797.24;;;20.75;87.06
61359;BME280;47228;46.762;23.598;2023-08-06T06:26:10;95794.77;;;20.84;86.68
61359;BME280;47228;46.762;23.598;2023-08-06T06:28:38;95803.02;;;20.92;86.83
61359;BME280;47228;46.762;23.598;2023-08-06T06:31:06;95809.77;;;21.00;86.65
61359;BME280;47228;46.762;23.598;2023-08-06T06:33:34;95817.58;;;21.08;86.28
61359;BME280;47228;46.762;23.598;2023-08-06T06:36:02;95823.06;;;21.12;85.59
61359;BME280;47228;46.762;23.598;2023-08-06T06:38:31;95836.14;;;21.18;85.13
61359;BME280;47228;46.762;23.598;2023-08-06T06:40:59;95849.01;;;21.24;84.98
61359;BME280;47228;46.762;23.598;2023-08-06T06:43:27;95855.29;;;21.30;84.47
61359;BME280;47228;46.762;23.598;2023-08-06T06:45:59;95864.36;;;21.38;84.64
61359;BME280;47228;46.762;23.598;2023-08-06T06:48:31;95863.77;;;21.48;84.58
61359;BME280;47228;46.762;23.598;2023-08-06T06:50:59;95856.19;;;21.58;84.48
61359;BME280;47228;46.762;23.598;2023-08-06T06:53:27;95854.94;;;21.64;84.65
61359;BME280;47228;46.762;23.598;2023-08-06T06:56:00;95861.61;;;21.71;84.07
61359;BME280;47228;46.762;23.598;2023-08-06T06:58:29;95868.81;;;21.79;83.61
61359;BME280;47228;46.762;23.598;2023-08-06T07:00:58;95863.91;;;21.87;83.56
61359;BME280;47228;46.762;23.598;2023-08-06T07:03:26;95872.00;;;21.93;83.47
61359;BME280;47228;46.762;23.598;2023-08-06T07:05:57;95886.58;;;21.96;82.99
61359;BME280;47228;46.762;23.598;2023-08-06T07:08:27;95893.23;;;22.00;82.20
61359;BME280;47228;46.762;23.598;2023-08-06T07:11:03;95884.88;;;22.06;82.23
61359;BME280;47228;46.762;23.598;2023-08-06T07:13:32;95885.28;;;22.13;82.43
61359;BME280;47228;46.762;23.598;2023-08-06T07:16:00;95872.34;;;22.17;82.13
61359;BME280;47228;46.762;23.598;2023-08-06T07:18:28;95848.27;;;22.18;82.30
61359;BME280;47228;46.762;23.598;2023-08-06T07:20:56;95837.86;;;22.17;81.71
61359;BME280;47228;46.762;23.598;2023-08-06T07:23:25;95835.20;;;22.14;81.44
61359;BME280;47228;46.762;23.598;2023-08-06T07:25:53;95849.34;;;22.13;81.38
61359;BME280;47228;46.762;23.598;2023-08-06T07:28:22;95841.33;;;22.13;81.61
61359;BME280;47228;46.762;23.598;2023-08-06T07:30:50;95829.52;;;22.17;82.50
61359;BME280;47228;46.762;23.598;2023-08-06T07:33:18;95839.36;;;22.23;82.38
61359;BME280;47228;46.762;23.598;2023-08-06T07:35:46;95853.44;;;22.28;82.38
61359;BME280;47228;46.762;23.598;2023-08-06T07:38:14;95864.54;;;22.36;82.27
61359;BME280;47228;46.762;23.598;2023-08-06T07:40:42;95875.85;;;22.45;81.75
61359;BME280;47228;46.762;23.598;2023-08-06T07:43:10;95881.48;;;22.55;81.53
61359;BME280;47228;46.762;23.598;2023-08-06T07:45:39;95889.55;;;22.64;81.21
61359;BME280;47228;46.762;23.598;2023-08-06T07:48:07;95899.41;;;22.71;79.92
61359;BME280;47228;46.762;23.598;2023-08-06T07:50:35;95906.51;;;22.72;79.13
61359;BME280;47228;46.762;23.598;2023-08-06T07:53:03;95910.88;;;22.68;79.17
61359;BME280;47228;46.762;23.598;2023-08-06T07:55:31;95917.68;;;22.63;79.81
61359;BME280;47228;46.762;23.598;2023-08-06T07:57:59;95931.87;;;22.60;79.72
61359;BME280;47228;46.762;23.598;2023-08-06T08:00:27;95934.70;;;22.58;78.75
61359;BME280;47228;46.762;23.598;2023-08-06T08:02:55;95937.61;;;22.56;78.31
61359;BME280;47228;46.762;23.598;2023-08-06T08:05:23;95941.52;;;22.55;78.50
61359;BME280;47228;46.762;23.598;2023-08-06T08:07:51;95946.88;;;22.56;78.17
61359;BME280;47228;46.762;23.598;2023-08-06T08:10:19;95951.11;;;22.55;78.58
61359;BME280;47228;46.762;23.598;2023-08-06T08:12:47;95952.83;;;22.53;79.00
61359;BME280;47228;46.762;23.598;2023-08-06T08:15:15;95948.80;;;22.49;79.16
61359;BME280;47228;46.762;23.598;2023-08-06T08:17:43;95954.70;;;22.44;79.14
61359;BME280;47228;46.762;23.598;2023-08-06T08:20:11;95954.69;;;22.39;79.34
61359;BME280;47228;46.762;23.598;2023-08-06T08:22:39;95954.55;;;22.32;79.85
61359;BME280;47228;46.762;23.598;2023-08-06T08:25:07;95946.71;;;22.27;79.88
61359;BME280;47228;46.762;23.598;2023-08-06T08:27:36;95936.51;;;22.18;79.46
61359;BME280;47228;46.762;23.598;2023-08-06T08:30:04;95923.09;;;22.10;79.45
61359;BME280;47228;46.762;23.598;2023-08-06T08:32:32;95898.07;;;22.02;78.72
61359;BME280;47228;46.762;23.598;2023-08-06T08:35:00;95875.60;;;21.96;78.30
61359;BME280;47228;46.762;23.598;2023-08-06T08:37:28;95848.11;;;21.89;78.09
61359;BME280;47228;46.762;23.598;2023-08-06T08:39:56;95808.36;;;21.82;77.63
61359;BME280;47228;46.762;23.598;2023-08-06T08:42:24;95814.69;;;21.77;77.63
61359;BME280;47228;46.762;23.598;2023-08-06T08:44:53;95838.30;;;21.73;77.39
61359;BME280;47228;46.762;23.598;2023-08-06T08:47:22;95840.94;;;21.70;76.81
61359;BME280;47228;46.762;23.598;2023-08-06T08:49:54;95824.13;;;21.68;77.17
61359;BME280;47228;46.762;23.598;2023-08-06T08:52:25;95833.86;;;21.68;76.09
61359;BME280;47228;46.762;23.598;2023-08-06T08:54:53;95850.13;;;21.68;75.51
61359;BME280;47228;46.762;23.598;2023-08-06T08:57:22;95865.22;;;21.69;75.23
61359;BME280;47228;46.762;23.598;2023-08-06T08:59:50;95862.08;;;21.70;75.61
61359;BME280;47228;46.762;23.598;2023-08-06T09:02:21;95845.42;;;21.66;75.08
61359;BME280;47228;46.762;23.598;2023-08-06T09:04:49;95824.71;;;21.65;75.20
61359;BME280;47228;46.762;23.598;2023-08-06T09:07:19;95824.08;;;21.64;75.01
61359;BME280;47228;46.762;23.598;2023-08-06T09:09:49;95838.98;;;21.66;74.74
61359;BME280;47228;46.762;23.598;2023-08-06T09:12:17;95847.20;;;21.75;75.05
61359;BME280;47228;46.762;23.598;2023-08-06T09:14:45;95841.17;;;21.88;75.03
61359;BME280;47228;46.762;23.598;2023-08-06T09:17:14;95834.46;;;21.96;74.57
61359;BME280;47228;46.762;23.598;2023-08-06T09:19:42;95830.46;;;22.03;73.91
61359;BME280;47228;46.762;23.598;2023-08-06T09:22:16;95835.09;;;22.15;73.31
61359;BME280;47228;46.762;23.598;2023-08-06T09:24:44;95832.86;;;22.32;73.45
61359;BME280;47228;46.762;23.598;2023-08-06T09:27:13;95829.31;;;22.55;73.58
61359;BME280;47228;46.762;23.598;2023-08-06T09:29:45;95834.19;;;22.73;73.04
61359;BME280;47228;46.762;23.598;2023-08-06T09:32:13;95835.18;;;22.82;72.58
61359;BME280;47228;46.762;23.598;2023-08-06T09:34:42;95841.17;;;22.88;71.82
61359;BME280;47228;46.762;23.598;2023-08-06T09:37:10;95838.77;;;22.97;71.50
61359;BME280;47228;46.762;23.598;2023-08-06T09:39:39;95841.98;;;23.10;71.31
61359;BME280;47228;46.762;23.598;2023-08-06T09:42:14;95829.05;;;23.28;71.37
61359;BME280;47228;46.762;23.598;2023-08-06T09:44:43;95826.79;;;23.48;70.80
61359;BME280;47228;46.762;23.598;2023-08-06T09:47:15;95826.00;;;23.69;71.00
61359;BME280;47228;46.762;23.598;2023-08-06T09:49:45;95825.43;;;23.93;69.97
61359;BME280;47228;46.762;23.598;2023-08-06T09:52:15;95828.24;;;24.15;69.99
61359;BME280;47228;46.762;23.598;2023-08-06T09:54:44;95830.34;;;24.36;69.31
61359;BME280;47228;46.762;23.598;2023-08-06T09:57:14;95834.58;;;24.51;68.96
61359;BME280;47228;46.762;23.598;2023-08-06T09:59:49;95840.55;;;24.64;68.67
61359;BME280;47228;46.762;23.598;2023-08-06T10:02:18;95844.80;;;24.83;68.27
61359;BME280;47228;46.762;23.598;2023-08-06T10:04:51;95842.90;;;25.07;67.73
61359;BME280;47228;46.762;23.598;2023-08-06T10:07:24;95840.98;;;25.21;65.68
61359;BME280;47228;46.762;23.598;2023-08-06T10:09:52;95841.34;;;25.27;63.39
61359;BME280;47228;46.762;23.598;2023-08-06T10:12:43;95839.23;;;25.29;62.79
61359;BME280;47228;46.762;23.598;2023-08-06T10:15:16;95841.13;;;25.30;61.90
61359;BME280;47228;46.762;23.598;2023-08-06T10:17:48;95840.75;;;25.30;62.10
61359;BME280;47228;46.762;23.598;2023-08-06T10:20:19;95842.30;;;25.30;61.08
61359;BME280;47228;46.762;23.598;2023-08-06T10:23:01;95843.93;;;25.28;60.45
61359;BME280;47228;46.762;23.598;2023-08-06T10:25:33;95837.02;;;25.23;59.80
61359;BME280;47228;46.762;23.598;2023-08-06T10:28:11;95836.89;;;25.17;59.32
61359;BME280;47228;46.762;23.598;2023-08-06T10:30:47;95836.20;;;25.10;59.84
61359;BME280;47228;46.762;23.598;2023-08-06T10:33:19;95826.19;;;25.05;59.70
61359;BME280;47228;46.762;23.598;2023-08-06T10:35:49;95828.42;;;25.05;60.27
61359;BME280;47228;46.762;23.598;2023-08-06T10:38:22;95832.39;;;25.14;60.97
61359;BME280;47228;46.762;23.598;2023-08-06T10:43:27;95819.58;;;25.54;59.71
61359;BME280;47228;46.762;23.598;2023-08-06T10:45:57;95812.77;;;25.75;58.86
61359;BME280;47228;46.762;23.598;2023-08-06T10:48:29;95810.45;;;25.88;58.34
61359;BME280;47228;46.762;23.598;2023-08-06T10:51:01;95808.84;;;25.97;57.82
61359;BME280;47228;46.762;23.598;2023-08-06T10:53:29;95809.12;;;26.01;57.90
61359;BME280;47228;46.762;23.598;2023-08-06T10:56:01;95805.59;;;25.99;58.21
61359;BME280;47228;46.762;23.598;2023-08-06T10:58:33;95806.41;;;25.96;58.54
61359;BME280;47228;46.762;23.598;2023-08-06T11:01:02;95808.09;;;25.90;58.80
61359;BME280;47228;46.762;23.598;2023-08-06T11:03:32;95803.40;;;25.84;58.91
61359;BME280;47228;46.762;23.598;2023-08-06T11:06:00;95806.71;;;25.78;59.39
61359;BME280;47228;46.762;23.598;2023-08-06T11:08:33;95812.88;;;25.71;59.52
61359;BME280;47228;46.762;23.598;2023-08-06T11:11:12;95810.98;;;25.65;59.42
61359;BME280;47228;46.762;23.598;2023-08-06T11:13:44;95808.11;;;25.58;59.20
61359;BME280;47228;46.762;23.598;2023-08-06T11:16:17;95811.91;;;25.51;58.51
61359;BME280;47228;46.762;23.598;2023-08-06T11:18:46;95819.33;;;25.42;57.37
61359;BME280;47228;46.762;23.598;2023-08-06T11:21:19;95820.76;;;25.31;57.08
61359;BME280;47228;46.762;23.598;2023-08-06T11:23:48;95815.58;;;25.20;56.44
61359;BME280;47228;46.762;23.598;2023-08-06T11:26:19;95816.19;;;25.10;55.69
61359;BME280;47228;46.762;23.598;2023-08-06T11:28:49;95814.21;;;25.00;55.67
61359;BME280;47228;46.762;23.598;2023-08-06T11:31:21;95809.86;;;24.95;56.57
61359;BME280;47228;46.762;23.598;2023-08-06T11:33:54;95807.96;;;24.94;56.96
61359;BME280;47228;46.762;23.598;2023-08-06T11:36:48;95811.55;;;24.93;57.26
61359;BME280;47228;46.762;23.598;2023-08-06T11:39:17;95813.17;;;24.90;56.74
61359;BME280;47228;46.762;23.598;2023-08-06T11:41:45;95815.97;;;24.88;56.15
61359;BME280;47228;46.762;23.598;2023-08-06T11:44:13;95817.10;;;24.87;56.05
61359;BME280;47228;46.762;23.598;2023-08-06T11:46:57;95813.48;;;24.86;55.51
61359;BME280;47228;46.762;23.598;2023-08-06T11:52:16;95813.00;;;24.82;54.22
61359;BME280;47228;46.762;23.598;2023-08-06T11:57:31;95823.83;;;24.74;55.01
61359;BME280;47228;46.762;23.598;2023-08-06T12:00:08;95833.52;;;24.67;55.51
61359;BME280;47228;46.762;23.598;2023-08-06T12:02:41;95839.70;;;24.58;55.89
61359;BME280;47228;46.762;23.598;2023-08-06T12:07:48;95850.47;;;24.42;57.27
61359;BME280;47228;46.762;23.598;2023-08-06T12:10:19;95849.15;;;24.34;57.95
61359;BME280;47228;46.762;23.598;2023-08-06T12:12:49;95852.55;;;24.27;58.11
61359;BME280;47228;46.762;23.598;2023-08-06T12:15:18;95856.29;;;24.21;58.27
61359;BME280;47228;46.762;23.598;2023-08-06T12:17:47;95862.30;;;24.14;58.59
61359;BME280;47228;46.762;23.598;2023-08-06T12:20:15;95865.91;;;24.08;58.68
61359;BME280;47228;46.762;23.598;2023-08-06T12:22:44;95872.79;;;24.00;58.90
61359;BME280;47228;46.762;23.598;2023-08-06T12:25:14;95872.65;;;23.94;59.15
61359;BME280;47228;46.762;23.598;2023-08-06T12:27:43;95874.59;;;23.90;59.40
61359;BME280;47228;46.762;23.598;2023-08-06T12:30:12;95874.46;;;23.84;59.76
61359;BME280;47228;46.762;23.598;2023-08-06T12:32:41;95872.30;;;23.79;59.83
61359;BME280;47228;46.762;23.598;2023-08-06T12:35:09;95872.43;;;23.75;59.99
61359;BME280;47228;46.762;23.598;2023-08-06T12:37:37;95868.52;;;23.72;60.16
61359;BME280;47228;46.762;23.598;2023-08-06T12:40:08;95866.36;;;23.70;60.35
61359;BME280;47228;46.762;23.598;2023-08-06T12:42:56;95866.52;;;23.70;60.77
61359;BME280;47228;46.762;23.598;2023-08-06T12:45:25;95860.64;;;23.72;61.03
61359;BME280;47228;46.762;23.598;2023-08-06T12:47:53;95855.75;;;23.76;61.15
61359;BME280;47228;46.762;23.598;2023-08-06T12:50:21;95858.48;;;23.80;60.52
61359;BME280;47228;46.762;23.598;2023-08-06T12:52:49;95856.38;;;23.84;60.48
61359;BME280;47228;46.762;23.598;2023-08-06T12:55:17;95848.59;;;23.91;60.80
61359;BME280;47228;46.762;23.598;2023-08-06T12:57:45;95843.13;;;23.94;60.97
61359;BME280;47228;46.762;23.598;2023-08-06T13:00:26;95832.66;;;23.94;60.58
61359;BME280;47228;46.762;23.598;2023-08-06T13:02:55;95833.94;;;23.93;60.24
61359;BME280;47228;46.762;23.598;2023-08-06T13:05:24;95833.97;;;23.94;60.22
61359;BME280;47228;46.762;23.598;2023-08-06T13:07:52;95832.58;;;23.96;60.29
61359;BME280;47228;46.762;23.598;2023-08-06T13:10:20;95823.81;;;23.97;60.60
61359;BME280;47228;46.762;23.598;2023-08-06T13:12:49;95826.27;;;23.98;61.18
61359;BME280;47228;46.762;23.598;2023-08-06T13:15:17;95821.35;;;23.99;61.27
61359;BME280;47228;46.762;23.598;2023-08-06T13:17:48;95815.98;;;23.97;61.39
61359;BME280;47228;46.762;23.598;2023-08-06T13:20:16;95816.41;;;23.92;61.57
61359;BME280;47228;46.762;23.598;2023-08-06T13:22:49;95814.50;;;23.85;61.68